Skip Navigation LinksHome page > Tools > METAR decoder Skip Navigation Links

METAR decoder

Settings

METAR

Chicago O'Hare Intl, Chicago

For information only: do not use for flight planning or navigation.
Latest weather
Observation time Saturday, April 25, 2015 7:51 PM CDT
Local time Saturday, April 25, 2015 8:13 PM CDT
Flight conditions Visual Meteorological Conditions
Winds
Wind direction North-Northeast (20°)
Wind speed 14 mph
Visibility 10 mi.
Sky condition
Ceiling 6,500 ft. overcast
Cloud layer few clouds 3,300 ft.
Cloud layer overcast 6,500 ft.
Temperature 42°F
Dewpoint 32°F
Altimeter 29.82 in.Hg
Derived measurements
Relative humidity 67%
Wind chill 35°F
Density altitude -257 ft.
Sea-level pressure 29.83 in.Hg
Remarks
Automated weather observing station with precipitation discriminator.
METAR KORD 260051Z 02012KT 10SM FEW033 OVC065 06/00 A2982 RMK AO2 SLP102 T00560000

InnerDrive.Weather 4.0.5567.0 Release CLR 4.0.30319.34014
Copyright ©2015 Inner Drive Technology. All rights reserved. Portions Copyright ©1986-2015 David Braverman.

Find weather

Site navigation


Skip Navigation Links

Place info

Page info

PayPal - The safer, easier way to pay online!

Return home.

Copyright ©2015 Inner Drive Technology. Purveyors of fine, hand-crafted computer software. Page printed 2015-04-26T01:13:11 UTC.